Terminal Aerodrome Forecast
Issued by NWS

Home | Current Version | Previous Version | Text Only | Print | Product List | Glossary On
Versions: 1 2 3 4 5 6 7 8 9 10 11 12 13 14
000
FTUS45 KSLC 250543
TAF36U
TAF
K36U 250543Z 2506/2606 24015G22KT P6SM TSRA SCT050CB BKN070
     FM250700 18008KT P6SM -SHRA SCT050 BKN080
     FM251600 25007KT P6SM -SHRA SCT060 BKN080
     FM260300 22008KT P6SM VCSH SCT070 BKN090=

USA.gov is the U.S. government's official web portal to all federal, state and local government web resources and services.